createdAt,value
2023-04-01T00:02:05.032Z,6.73
2023-04-01T00:04:33.331Z,6.67
2023-04-01T00:07:02.598Z,6.63
2023-04-01T00:09:31.106Z,6.60
2023-04-01T00:11:58.724Z,6.55
2023-04-01T00:14:26.472Z,6.54
2023-04-01T00:16:55.529Z,6.49
2023-04-01T00:19:23.549Z,6.40
2023-04-01T00:21:51.148Z,6.38
2023-04-01T00:24:18.803Z,6.32
2023-04-01T00:26:46.551Z,6.25
2023-04-01T00:29:14.131Z,6.20
2023-04-01T00:31:41.876Z,6.21
2023-04-01T00:34:10.936Z,6.14
2023-04-01T00:36:39.422Z,6.13
2023-04-01T00:39:07.049Z,6.15
2023-04-01T00:41:34.642Z,6.12
2023-04-01T00:44:19.477Z,6.07
2023-04-01T00:46:47.428Z,6.06
2023-04-01T00:49:19.458Z,6.04
2023-04-01T00:51:49.028Z,6.01
2023-04-01T00:54:18.743Z,5.96
2023-04-01T00:56:50.830Z,5.93
2023-04-01T00:59:24.251Z,5.91
2023-04-01T01:01:52.082Z,5.89
2023-04-01T01:04:26.644Z,5.83
2023-04-01T01:07:04.713Z,5.88
2023-04-01T01:09:41.258Z,5.79
2023-04-01T01:12:15.740Z,5.82
2023-04-01T01:14:54.501Z,5.78
2023-04-01T01:17:32.709Z,5.78
2023-04-01T01:20:31.237Z,5.71
2023-04-01T01:23:27.371Z,5.68
2023-04-01T01:26:11.040Z,5.74
2023-04-01T01:28:50.235Z,5.68
2023-04-01T01:31:23.364Z,5.65
2023-04-01T01:34:04.638Z,5.62
2023-04-01T01:36:36.608Z,5.57
2023-04-01T01:39:07.436Z,5.61
2023-04-01T01:41:36.762Z,5.56
2023-04-01T01:44:06.921Z,5.50
2023-04-01T01:46:35.210Z,5.41
2023-04-01T01:49:05.222Z,5.41
2023-04-01T01:51:34.337Z,5.44
2023-04-01T01:54:01.986Z,5.45
2023-04-01T01:56:31.886Z,5.43
2023-04-01T01:59:02.922Z,5.45
2023-04-01T02:01:33.648Z,5.46
2023-04-01T02:04:01.543Z,5.39
2023-04-01T02:06:34.392Z,5.39
2023-04-01T02:09:05.791Z,5.41
2023-04-01T02:11:40.152Z,5.38
2023-04-01T02:14:12.164Z,5.35
2023-04-01T02:16:46.671Z,5.29
2023-04-01T02:19:16.273Z,5.27
2023-04-01T02:21:45.325Z,5.24
2023-04-01T02:24:16.694Z,5.20
2023-04-01T02:26:46.859Z,5.17
2023-04-01T02:29:14.986Z,5.13
2023-04-01T02:31:44.440Z,5.16
2023-04-01T02:34:12.305Z,5.13
2023-04-01T02:36:40.546Z,5.11
2023-04-01T02:39:09.539Z,5.03
2023-04-01T02:41:42.562Z,5.12
2023-04-01T02:44:10.555Z,5.02
2023-04-01T02:46:38.531Z,4.96
2023-04-01T02:49:06.861Z,4.95
2023-04-01T02:51:34.637Z,4.88
2023-04-01T02:54:02.362Z,4.87
2023-04-01T02:56:30.149Z,4.89
2023-04-01T02:58:59.125Z,4.90
2023-04-01T03:01:26.852Z,4.89
2023-04-01T03:03:54.517Z,4.78
2023-04-01T03:06:22.194Z,4.79
2023-04-01T03:08:50.031Z,4.78
2023-04-01T03:11:17.634Z,4.74
2023-04-01T03:13:45.389Z,4.75
2023-04-01T03:16:14.453Z,4.73
2023-04-01T03:18:42.147Z,4.68
2023-04-01T03:21:17.530Z,4.62
2023-04-01T03:23:45.430Z,4.54
2023-04-01T03:26:13.203Z,4.49
2023-04-01T03:28:41.489Z,4.47
2023-04-01T03:31:09.545Z,4.43
2023-04-01T03:33:38.589Z,4.38
2023-04-01T03:36:07.420Z,4.32
2023-04-01T03:38:35.643Z,4.29
2023-04-01T03:41:03.510Z,4.31
2023-04-01T03:43:31.137Z,4.28
2023-04-01T03:45:59.268Z,4.26
2023-04-01T03:48:27.530Z,4.22
2023-04-01T03:50:56.493Z,4.20
2023-04-01T03:53:24.294Z,4.21
2023-04-01T03:55:52.890Z,4.22
2023-04-01T03:58:20.922Z,4.24
2023-04-01T04:00:48.522Z,4.16
2023-04-01T04:03:16.247Z,4.15
2023-04-01T04:05:49.017Z,4.17
2023-04-01T04:08:18.180Z,4.10
2023-04-01T04:10:47.290Z,4.09
2023-04-01T04:13:14.927Z,4.12
2023-04-01T04:15:42.832Z,4.15
2023-04-01T04:18:10.486Z,4.19
2023-04-01T04:20:38.094Z,4.15
2023-04-01T04:23:05.721Z,4.10
2023-04-01T04:25:35.078Z,4.11
2023-04-01T04:28:02.751Z,4.11
2023-04-01T04:30:30.500Z,4.09
2023-04-01T04:32:58.294Z,4.08
2023-04-01T04:35:25.956Z,4.06
2023-04-01T04:37:53.594Z,4.06
2023-04-01T04:40:21.179Z,4.02
2023-04-01T04:42:50.300Z,3.98
2023-04-01T04:45:18.026Z,3.96
2023-04-01T04:47:45.696Z,3.99
2023-04-01T04:50:13.938Z,4.00
2023-04-01T04:52:41.580Z,4.04
2023-04-01T04:55:09.795Z,4.02
2023-04-01T04:57:37.399Z,3.99
2023-04-01T05:00:08.514Z,3.98
2023-04-01T05:02:36.537Z,3.90
2023-04-01T05:05:05.085Z,3.96
2023-04-01T05:07:32.726Z,3.94
2023-04-01T05:10:00.343Z,3.98
2023-04-01T05:12:27.963Z,3.99
2023-04-01T05:14:55.743Z,3.96
2023-04-01T05:17:24.744Z,3.96
2023-04-01T05:19:52.453Z,3.92
2023-04-01T05:22:20.129Z,3.95
2023-04-01T05:24:47.959Z,3.95
2023-04-01T05:27:15.585Z,3.96
2023-04-01T05:29:43.189Z,3.96
2023-04-01T05:32:10.804Z,3.95
2023-04-01T05:34:39.766Z,3.90
2023-04-01T05:37:08.484Z,3.96
2023-04-01T05:39:38.530Z,3.98
2023-04-01T05:42:08.328Z,3.98
2023-04-01T05:44:36.277Z,3.98
2023-04-01T05:47:04.528Z,4.00
2023-04-01T05:49:32.880Z,3.99
2023-04-01T05:52:01.945Z,3.97
2023-04-01T05:54:30.012Z,3.97
2023-04-01T05:56:57.672Z,3.99
2023-04-01T05:59:25.273Z,4.02
2023-04-01T06:01:52.895Z,4.02
2023-04-01T06:04:20.671Z,4.01
2023-04-01T06:06:48.459Z,4.03
2023-04-01T06:09:20.000Z,4.01
2023-04-01T06:12:08.882Z,4.02
2023-04-01T06:14:45.455Z,4.01
2023-04-01T06:17:28.931Z,4.00
2023-04-01T06:20:06.018Z,4.03
2023-04-01T06:22:53.359Z,4.07
2023-04-01T06:25:34.879Z,4.05
2023-04-01T06:28:32.573Z,4.03
2023-04-01T06:31:07.637Z,4.01
2023-04-01T06:33:50.762Z,4.04
2023-04-01T06:36:51.648Z,4.05
2023-04-01T06:39:34.779Z,4.04
2023-04-01T06:42:25.864Z,4.04
2023-04-01T06:45:05.493Z,4.04
2023-04-01T06:47:45.645Z,4.01
2023-04-01T06:50:22.630Z,4.04
2023-04-01T06:52:58.785Z,4.06
2023-04-01T06:55:34.284Z,4.04
2023-04-01T06:58:06.611Z,4.02
2023-04-01T07:00:37.371Z,4.01
2023-04-01T07:03:18.322Z,4.04
2023-04-01T07:05:46.190Z,4.04
2023-04-01T07:08:17.919Z,4.06
2023-04-01T07:10:52.107Z,4.06
2023-04-01T07:13:24.986Z,4.02
2023-04-01T07:16:01.639Z,4.03
2023-04-01T07:18:38.029Z,4.00
2023-04-01T07:21:11.645Z,3.97
2023-04-01T07:23:43.303Z,3.95
2023-04-01T07:26:19.063Z,3.94
2023-04-01T07:28:48.517Z,3.97
2023-04-01T07:31:24.329Z,3.97
2023-04-01T07:34:04.085Z,4.00
2023-04-01T07:36:38.573Z,4.02
2023-04-01T07:39:17.743Z,4.09
2023-04-01T07:41:54.862Z,4.06
2023-04-01T07:44:31.780Z,4.00
2023-04-01T07:47:13.775Z,3.94
2023-04-01T07:49:54.278Z,3.91
2023-04-01T07:52:30.433Z,3.91
2023-04-01T07:55:03.366Z,3.88
2023-04-01T07:57:40.790Z,3.90
2023-04-01T08:00:18.005Z,3.94
2023-04-01T08:02:59.574Z,3.88
2023-04-01T08:05:30.075Z,3.92
2023-04-01T08:08:08.074Z,3.88
2023-04-01T08:10:41.735Z,3.85
2023-04-01T08:13:20.889Z,3.82
2023-04-01T08:15:58.009Z,3.82
2023-04-01T08:18:38.995Z,3.78
2023-04-01T08:21:13.881Z,3.79
2023-04-01T08:23:45.984Z,3.81
2023-04-01T08:26:21.018Z,3.81
2023-04-01T08:28:55.807Z,3.79
2023-04-01T08:31:32.857Z,3.70
2023-04-01T08:34:03.156Z,3.72
2023-04-01T08:36:35.819Z,3.75
2023-04-01T08:39:10.356Z,3.75
2023-04-01T08:41:58.616Z,3.71
2023-04-01T08:44:42.253Z,3.69
2023-04-01T08:47:29.782Z,3.70
2023-04-01T08:50:25.536Z,3.61
2023-04-01T08:53:02.818Z,3.61
2023-04-01T08:55:40.540Z,3.66
2023-04-01T08:58:32.923Z,3.67
2023-04-01T09:01:15.588Z,3.66
2023-04-01T09:04:17.218Z,3.68
2023-04-01T09:06:56.257Z,3.72
2023-04-01T09:09:46.221Z,3.72
2023-04-01T09:12:46.860Z,3.77
2023-04-01T09:15:29.574Z,3.73
2023-04-01T09:18:26.443Z,3.76
2023-04-01T09:21:14.149Z,3.81
2023-04-01T09:24:00.716Z,3.85
2023-04-01T09:26:45.009Z,3.82
2023-04-01T09:29:30.131Z,3.79
2023-04-01T09:32:14.609Z,3.80
2023-04-01T09:34:56.029Z,3.78
2023-04-01T09:37:36.129Z,3.76
2023-04-01T09:40:26.500Z,3.74
2023-04-01T09:43:09.436Z,3.72
2023-04-01T09:45:45.863Z,3.79
2023-04-01T09:48:24.323Z,3.70
2023-04-01T09:51:04.030Z,3.77
2023-04-01T09:53:48.498Z,3.87
2023-04-01T09:56:46.814Z,3.94
2023-04-01T09:59:47.255Z,4.03
2023-04-01T10:02:51.008Z,3.98
2023-04-01T10:05:51.845Z,3.97
2023-04-01T10:08:54.526Z,3.98
2023-04-01T10:11:44.151Z,3.88
2023-04-01T10:14:37.221Z,3.78
2023-04-01T10:17:51.691Z,3.77
2023-04-01T10:20:38.584Z,3.85
2023-04-01T10:23:20.762Z,3.79
2023-04-01T10:26:12.991Z,3.78
2023-04-01T10:29:03.772Z,3.71
2023-04-01T10:31:57.550Z,3.73
2023-04-01T10:35:05.169Z,3.76
2023-04-01T10:37:50.003Z,3.78
2023-04-01T10:40:47.646Z,3.80
2023-04-01T10:43:56.853Z,3.78
2023-04-01T10:46:58.240Z,3.87
2023-04-01T10:49:49.800Z,3.90
2023-04-01T10:53:01.682Z,3.88
2023-04-01T10:55:54.061Z,3.87
2023-04-01T10:58:57.786Z,3.80
2023-04-01T11:02:10.159Z,3.81
2023-04-01T11:08:16.661Z,3.80
2023-04-01T11:11:04.930Z,3.81
2023-04-01T11:14:01.468Z,3.80
2023-04-01T11:17:03.752Z,3.77
2023-04-01T11:19:53.073Z,3.78
2023-04-01T11:22:38.252Z,3.77
2023-04-01T11:25:19.978Z,3.77
2023-04-01T11:28:18.664Z,3.83
2023-04-01T11:31:13.822Z,3.86
2023-04-01T11:33:51.577Z,3.89
2023-04-01T11:36:31.359Z,3.87
2023-04-01T11:39:12.638Z,3.87
2023-04-01T11:41:45.610Z,3.91
2023-04-01T11:44:19.627Z,4.02
2023-04-01T11:47:05.739Z,4.02
2023-04-01T11:49:44.122Z,4.07
2023-04-01T11:52:23.878Z,4.14
2023-04-01T11:55:14.680Z,4.22
2023-04-01T11:57:58.308Z,4.20
2023-04-01T12:00:50.664Z,4.11
2023-04-01T12:03:44.090Z,4.17
2023-04-01T12:06:21.472Z,4.26
2023-04-01T12:08:57.943Z,4.25
2023-04-01T12:11:33.043Z,4.32
2023-04-01T12:14:08.554Z,4.42
2023-04-01T12:16:51.124Z,4.44
2023-04-01T12:19:28.865Z,4.34
2023-04-01T12:22:16.815Z,4.23
2023-04-01T12:24:49.896Z,4.26
2023-04-01T12:27:31.742Z,4.36
2023-04-01T12:30:40.382Z,4.34
2023-04-01T12:33:33.255Z,4.34
2023-04-01T12:36:12.257Z,4.34
2023-04-01T12:38:53.920Z,4.37
2023-04-01T12:41:35.064Z,4.36
2023-04-01T12:44:28.829Z,4.46
2023-04-01T12:47:20.144Z,4.55
2023-04-01T12:50:03.412Z,4.50
2023-04-01T12:52:45.366Z,4.54
2023-04-01T12:55:39.755Z,4.55
2023-04-01T12:58:32.772Z,4.63
2023-04-01T13:01:21.546Z,4.69
2023-04-01T13:04:04.677Z,4.65
2023-04-01T13:06:43.477Z,4.70
2023-04-01T13:09:26.607Z,4.68
2023-04-01T13:12:17.352Z,4.80
2023-04-01T13:15:21.357Z,4.66
2023-04-01T13:17:55.549Z,4.58
2023-04-01T13:20:36.708Z,4.51
2023-04-01T13:23:19.523Z,4.53
2023-04-01T13:26:07.109Z,4.42
2023-04-01T13:28:48.578Z,4.40
2023-04-01T13:31:33.122Z,4.36
2023-04-01T13:34:15.449Z,4.37
2023-04-01T13:36:56.952Z,4.22
2023-04-01T13:39:35.233Z,4.23
2023-04-01T13:42:16.919Z,4.09
2023-04-01T13:44:50.051Z,4.03
2023-04-01T13:47:29.891Z,4.07
2023-04-01T13:50:42.186Z,4.02
2023-04-01T13:53:42.751Z,4.03
2023-04-01T13:56:18.575Z,4.01
2023-04-01T13:58:59.784Z,4.00
2023-04-01T14:01:37.654Z,4.07
2023-04-01T14:04:32.804Z,4.09
2023-04-01T14:07:10.128Z,4.18
2023-04-01T14:10:07.350Z,4.23
2023-04-01T14:12:42.458Z,4.34
2023-04-01T14:15:29.020Z,4.34
2023-04-01T14:18:16.028Z,4.33
2023-04-01T14:20:52.796Z,4.40
2023-04-01T14:23:44.778Z,4.38
2023-04-01T14:26:33.902Z,4.34
2023-04-01T14:29:14.726Z,4.28
2023-04-01T14:31:50.301Z,4.24
2023-04-01T14:34:31.727Z,4.24
2023-04-01T14:37:14.018Z,4.25
2023-04-01T14:40:14.707Z,4.19
2023-04-01T14:43:03.333Z,4.24
2023-04-01T14:46:07.213Z,4.19
2023-04-01T14:48:38.297Z,4.33
2023-04-01T14:51:17.096Z,4.42
2023-04-01T14:53:55.430Z,4.56
2023-04-01T14:56:38.145Z,4.76
2023-04-01T14:59:11.296Z,4.77
2023-04-01T15:01:49.231Z,4.79
2023-04-01T15:05:02.596Z,4.90
2023-04-01T15:08:07.703Z,4.97
2023-04-01T15:11:04.102Z,4.99
2023-04-01T15:13:49.094Z,4.99
2023-04-01T15:16:27.642Z,5.09
2023-04-01T15:19:03.621Z,5.21
2023-04-01T15:21:56.134Z,5.46
2023-04-01T15:24:28.463Z,5.53
2023-04-01T15:27:13.348Z,5.53
2023-04-01T15:30:05.884Z,5.53
2023-04-01T15:32:47.727Z,5.54
2023-04-01T15:35:28.537Z,5.59
2023-04-01T15:38:00.845Z,5.52
2023-04-01T15:40:37.169Z,5.47
2023-04-01T15:43:18.915Z,5.44
2023-04-01T15:45:58.029Z,5.39
2023-04-01T15:48:36.376Z,5.43
2023-04-01T15:51:18.441Z,5.45
2023-04-01T15:53:58.798Z,5.47
2023-04-01T15:56:51.786Z,5.34
2023-04-01T15:59:35.661Z,5.27
2023-04-01T16:02:16.043Z,5.21
2023-04-01T16:04:50.550Z,5.12
2023-04-01T16:08:01.272Z,5.10
2023-04-01T16:10:45.850Z,5.13
2023-04-01T16:13:30.655Z,5.01
2023-04-01T16:16:09.597Z,4.94
2023-04-01T16:19:07.404Z,4.89
2023-04-01T16:21:45.430Z,4.97
2023-04-01T16:24:19.820Z,4.97
2023-04-01T16:26:55.525Z,4.99
2023-04-01T16:29:34.441Z,4.87
2023-04-01T16:32:20.049Z,4.88
2023-04-01T16:34:56.825Z,4.85
2023-04-01T16:37:35.956Z,4.85
2023-04-01T16:40:17.214Z,4.90
2023-04-01T16:42:51.979Z,4.83
2023-04-01T16:45:31.883Z,4.77
2023-04-01T16:48:08.480Z,4.70
2023-04-01T16:50:48.340Z,4.60
2023-04-01T16:53:19.761Z,4.54
2023-04-01T16:55:52.246Z,4.58
2023-04-01T16:58:25.538Z,4.48
2023-04-01T17:01:01.058Z,4.51
2023-04-01T17:03:34.300Z,4.46
2023-04-01T17:06:26.369Z,4.38
2023-04-01T17:09:13.187Z,4.28
2023-04-01T17:11:46.113Z,4.23
2023-04-01T17:14:24.705Z,4.19
2023-04-01T17:17:10.467Z,4.11
2023-04-01T17:20:08.026Z,4.06
2023-04-01T17:22:43.650Z,4.01
2023-04-01T17:25:34.328Z,3.95
2023-04-01T17:28:13.539Z,3.88
2023-04-01T17:30:49.705Z,3.88
2023-04-01T17:33:37.937Z,3.85
2023-04-01T17:36:13.763Z,3.80
2023-04-01T17:38:58.733Z,3.78
2023-04-01T17:41:38.510Z,3.73
2023-04-01T17:44:21.445Z,3.66
2023-04-01T17:47:10.161Z,3.65
2023-04-01T17:49:46.706Z,3.63
2023-04-01T17:52:25.834Z,3.59
2023-04-01T17:55:01.202Z,3.56
2023-04-01T17:57:41.876Z,3.50
2023-04-01T18:00:22.983Z,3.50
2023-04-01T18:03:02.582Z,3.43
2023-04-01T18:05:47.309Z,3.41
2023-04-01T18:08:19.527Z,3.38
2023-04-01T18:11:00.952Z,3.33
2023-04-01T18:14:00.666Z,3.30
2023-04-01T18:16:58.043Z,3.26
2023-04-01T18:19:34.007Z,3.21
2023-04-01T18:22:11.696Z,3.18
2023-04-01T18:24:45.557Z,3.17
2023-04-01T18:27:19.564Z,3.15
2023-04-01T18:29:53.317Z,3.14
2023-04-01T18:32:30.975Z,3.10
2023-04-01T18:35:04.430Z,3.05
2023-04-01T18:37:39.099Z,3.02
2023-04-01T18:40:17.577Z,3.03
2023-04-01T18:42:55.109Z,2.98
2023-04-01T18:45:29.372Z,2.97
2023-04-01T18:48:08.699Z,2.94
2023-04-01T18:50:43.010Z,2.91
2023-04-01T18:53:24.254Z,2.88
2023-04-01T18:55:55.019Z,2.86
2023-04-01T18:58:35.894Z,2.88
2023-04-01T19:01:29.074Z,2.87
2023-04-01T19:04:10.779Z,2.86
2023-04-01T19:06:48.632Z,2.87
2023-04-01T19:09:27.595Z,2.85
2023-04-01T19:12:16.547Z,2.84
2023-04-01T19:14:55.848Z,2.84
2023-04-01T19:17:35.147Z,2.85
2023-04-01T19:20:14.195Z,2.81
2023-04-01T19:23:04.432Z,2.78
2023-04-01T19:25:39.040Z,2.76
2023-04-01T19:28:23.689Z,2.78
2023-04-01T19:30:58.352Z,2.76
2023-04-01T19:33:45.044Z,2.73
2023-04-01T19:36:18.449Z,2.74
2023-04-01T19:38:57.905Z,2.71
2023-04-01T19:41:38.120Z,2.71
2023-04-01T19:44:28.034Z,2.70
2023-04-01T19:47:00.699Z,2.73
2023-04-01T19:49:52.445Z,2.73
2023-04-01T19:52:25.931Z,2.71
2023-04-01T19:55:00.551Z,2.69
2023-04-01T19:57:41.500Z,2.71
2023-04-01T20:00:18.117Z,2.71
2023-04-01T20:03:02.048Z,2.75
2023-04-01T20:05:42.139Z,2.76
2023-04-01T20:08:17.824Z,2.73
2023-04-01T20:10:57.440Z,2.70
2023-04-01T20:13:33.591Z,2.68
2023-04-01T20:16:05.393Z,2.67
2023-04-01T20:18:41.165Z,2.69
2023-04-01T20:21:20.722Z,2.66
2023-04-01T20:23:54.779Z,2.66
2023-04-01T20:26:25.241Z,2.64
2023-04-01T20:29:13.689Z,2.65
2023-04-01T20:31:43.751Z,2.65
2023-04-01T20:34:34.486Z,2.66
2023-04-01T20:37:32.869Z,2.63
2023-04-01T20:40:26.017Z,2.61
2023-04-01T20:43:19.028Z,2.63
2023-04-01T20:45:57.428Z,2.63
2023-04-01T20:48:51.196Z,2.64
2023-04-01T20:51:24.148Z,2.62
2023-04-01T20:54:00.732Z,2.63
2023-04-01T20:56:38.300Z,2.62
2023-04-01T20:59:26.792Z,2.60
2023-04-01T21:02:10.394Z,2.58
2023-04-01T21:04:53.018Z,2.57
2023-04-01T21:07:28.323Z,2.54
2023-04-01T21:10:14.350Z,2.55
2023-04-01T21:12:51.369Z,2.56
2023-04-01T21:15:43.212Z,2.56
2023-04-01T21:18:33.111Z,2.53
2023-04-01T21:21:19.949Z,2.57
2023-04-01T21:23:59.274Z,2.57
2023-04-01T21:26:43.765Z,2.60
2023-04-01T21:29:44.372Z,2.60
2023-04-01T21:32:33.772Z,2.62
2023-04-01T21:35:10.643Z,2.63
2023-04-01T21:37:51.655Z,2.65
2023-04-01T21:40:42.740Z,2.61
2023-04-01T21:43:22.840Z,2.60
2023-04-01T21:46:18.439Z,2.60
2023-04-01T21:49:01.256Z,2.57
2023-04-01T21:51:55.699Z,2.59
2023-04-01T21:54:52.797Z,2.58
2023-04-01T21:57:50.854Z,2.57
2023-04-01T22:00:26.078Z,2.58
2023-04-01T22:03:35.695Z,2.59
2023-04-01T22:06:13.834Z,2.58
2023-04-01T22:08:53.153Z,2.59
2023-04-01T22:11:33.630Z,2.58
2023-04-01T22:14:08.484Z,2.60
2023-04-01T22:16:41.621Z,2.59
2023-04-01T22:19:20.966Z,2.60
2023-04-01T22:22:02.055Z,2.59
2023-04-01T22:24:39.483Z,2.60
2023-04-01T22:27:16.476Z,2.62
2023-04-01T22:29:54.370Z,2.61
2023-04-01T22:32:27.997Z,2.62
2023-04-01T22:35:04.596Z,2.62
2023-04-01T22:37:42.716Z,2.62
2023-04-01T22:40:25.453Z,2.61
2023-04-01T22:42:58.209Z,2.60
2023-04-01T22:46:00.320Z,2.58
2023-04-01T22:48:34.689Z,2.57
2023-04-01T22:51:08.069Z,2.60
2023-04-01T22:53:49.337Z,2.60
2023-04-01T22:56:24.086Z,2.59
2023-04-01T22:58:58.494Z,2.56
2023-04-01T23:01:30.653Z,2.59
2023-04-01T23:04:00.994Z,2.64
2023-04-01T23:06:31.020Z,2.66
2023-04-01T23:09:08.891Z,2.68
2023-04-01T23:11:46.417Z,2.67
2023-04-01T23:14:37.952Z,2.65
2023-04-01T23:17:18.428Z,2.68
2023-04-01T23:19:54.858Z,2.66
2023-04-01T23:22:29.849Z,2.65
2023-04-01T23:25:07.021Z,2.62
2023-04-01T23:27:42.796Z,2.62
2023-04-01T23:30:49.047Z,2.66
2023-04-01T23:33:23.707Z,2.66
2023-04-01T23:35:52.482Z,2.65
2023-04-01T23:38:21.299Z,2.66
2023-04-01T23:40:50.861Z,2.61
2023-04-01T23:43:26.655Z,2.62
2023-04-01T23:45:55.375Z,2.64
2023-04-01T23:48:30.066Z,2.63
2023-04-01T23:50:59.057Z,2.62
2023-04-01T23:53:30.435Z,2.63
2023-04-01T23:55:58.108Z,2.61
2023-04-01T23:58:28.712Z,2.58
